Easton, WA

10:10 PM PDT on June 30, 2015 (GMT -0700)
Double K - Easton WA | | Change Station
CLOSE
Current Station
Personal Weather Station
Location: Easton, WA
Elevation: 2159 ft
Nearby Weather Stations
Active Advisory: Fire Weather Watch

Elev 2159 ft 47.22 °N, 121.16 °W | Updated 15 minutes ago

Clear
Clear
71.8 °F
Feels Like 76 °F
N
2.2
Wind Variable Wind from East

Today
High -- | Low -- °F
--% Chance of Precip.
Yesterday
High -- | Low -- °F
Precip. -- in
5:12 AM 9:04 PM
Waxing Gibbous, 99% visible
Pressure 29.93 in
Visibility 10.0 miles
Clouds Clear
Heat Index 76 °F
Dew Point 55 °F
Humidity 56%
Rainfall in
Snow Depth Not available.
UV 0 out of 12
Pollen 6.20 out of 12
Air Quality Not available.
Flu Activity Not available.
METAR KELN 010353Z AUTO 32015KT 10SM CLR 27/12 A2998 RMK AO2 PK WND 30027/0303 SLP134 T02720117

More Conditions Fewer Conditions

Pressure 29.93 in
Visibility 10.0 miles
Clouds Clear
Heat Index 76 °F
Dew Point 55 °F
Humidity 56%
Rainfall in
Snow Depth Not available.
UV 0 out of 12
Pollen 6.20 out of 12
Air Quality Not available.
Flu Activity Not available.
METAR KELN 010353Z AUTO 32015KT 10SM CLR 27/12 A2998 RMK AO2 PK WND 30027/0303 SLP134 T02720117

More Conditions Fewer Conditions

10-Day Weather Forecast

×

Almanac

Astronomy

Jun. 30, 2015 Rise Set
Actual Time
Civil Twilight
Nautical Twilight
Astronomical Twilight
Moon
Length of Visible Light
Length of Day
Tomorrow will be .
, % of the Moon is Illuminated

Today's Extremes

State Highs State Lows

Community

WunderPhotos

Upload Photos

1,834,148 photos uploaded!

WunderBlogs® & News

Nearby

Air Quality

  Air Quality AQ Index Pollutant
Not available.

Snow Depth

Station Depth Elevation

Earthquake Activity

City Distance Mag. Time & Date
Minimum magnitude displayed is 2.5.

Coastal Water Temperatures

Place Temperature

Stations

Nearby Weather Stations

Station Location Temp. Windchill Dew Point Humidity Wind Precip. Elev Updated Type
                   
Fire Weather Watch
Statement as of 2:48 PM PDT on June 30, 2015

... Fire Weather Watch in effect from Thursday afternoon through
Saturday evening for gusty winds and low humidity for fire
weather zones 639 and 639...

The National Weather Service in Pendleton has issued a Fire
Weather Watch... which is in effect from Thursday afternoon
through Saturday evening.

* Affected area... in orz639... fire weather zone 639. In waz639...
fire weather zone 639.

* Timing... lowest rh's combined with stronger winds expected to
occur between 1pm and 8 PM on Thursday through Saturday.

* Wind... 10 to 15 mph.

* Humidity... 13 to 18 percent.

* Impacts... any fires that develop will likely spread rapidly.
Outdoor burning is not recommended.

Precautionary/preparedness actions...

A Fire Weather Watch means that critical fire weather conditions
are forecast to occur. Listen for later forecasts and possible
red flag warnings.